Sea Storm — WDC7865 — position and weather

sailwx.info

Track history (hours):
 
Tides and Currents Weather Stations Pressure Air Temp Water Temp Dewpoint Dewpoint Depression Visibility Wind Speed Wind Dir Waves Ship Positions

Sea Storm

Owner: Sea Storm Fisheries, Inc, Seattle, WA. More information available from US FCC via Universal Licensing System and Coast Guard Vessel Documentation Center.

Last reported at 2018-May-29 11:53 UTC. Time now 2018-Jun-18 09:27 UTC.
Position N 48°57' W 126°25'.
Warning: this ship's position is 19 days out of date.

MMSI: 367078118.

Date/timePositionNaut miles runAvg speedWind from/ knotsBaromVisibWave heightAir tempDewpointWater temp
2018-May-29 11:53N 48°57' W 126°25'4 9.4
2018-May-29 11:26N 48°55' W 126°20'4 9.1
2018-May-29 11:00N 48°53' W 126°14'5 9.1
2018-May-29 10:28N 48°51' W 126°08'6 9.0
2018-May-29 09:51N 48°49' W 126°00'3 9.3
2018-May-29 09:30N 48°47' W 125°56'5 9.1
2018-May-29 09:00N 48°45' W 125°50'4 8.9
2018-May-29 08:31N 48°43' W 125°44'5 9.0
2018-May-29 08:00N 48°41' W 125°38'5 9.1
2018-May-29 07:30N 48°39' W 125°32'7 9.4
2018-May-29 06:49N 48°36' W 125°23'12 9.7
2018-May-29 05:34N 48°31' W 125°06'1 9.8
2018-May-29 05:30N 48°31' W 125°05'510.6
2018-May-29 05:01N 48°31' W 124°58'510.5
2018-May-29 04:30N 48°31' W 124°50'510.7
2018-May-29 04:00N 48°30' W 124°42'610.9
2018-May-29 03:30N 48°28' W 124°34'510.9
2018-May-29 03:01N 48°26' W 124°26'510.9
2018-May-29 02:31N 48°24' W 124°19'510.4
2018-May-29 02:00N 48°22' W 124°11'510.1
2018-May-29 01:28N 48°20' W 124°04'18 9.6
2018-May-28 23:39N 48°16' W 123°38'42 8.6
2018-May-28 18:44N 48°03' W 122°38'711.1
2018-May-28 18:09N 47°57' W 122°32'211.2
2018-May-28 18:00N 47°56' W 122°30'611.2
2018-May-28 17:30N 47°51' W 122°28'611.1
2018-May-28 17:00N 47°46' W 122°26'510.1
2018-May-28 16:30N 47°41' W 122°25'1 2.7
2018-May-28 16:00N 47°40' W 122°24'0 0.3
2018-May-28 15:30N 47°40' W 122°23'0 0.0
2018-May-28 15:00N 47°40' W 122°23'0 0.0
2018-May-28 14:30N 47°40' W 122°23'0 0.0
2018-May-28 14:00N 47°40' W 122°23'0 0.0
2018-May-28 13:30N 47°40' W 122°23'0 0.0
2018-May-28 13:00N 47°40' W 122°23'0 0.0
2018-May-28 12:30N 47°40' W 122°23'0 0.0
2018-May-28 12:00N 47°40' W 122°23'0 0.0
2018-May-28 11:30N 47°40' W 122°23'0 0.0
2018-May-28 11:00N 47°40' W 122°23'0 0.0
2018-May-28 10:30N 47°40' W 122°23'0 0.0
2018-May-28 10:00N 47°40' W 122°23'0 0.0
2018-May-28 09:30N 47°40' W 122°23'0 0.0
2018-May-28 09:00N 47°40' W 122°23'0 0.0
2018-May-28 08:30N 47°40' W 122°23'0 0.0
2018-May-28 08:00N 47°40' W 122°23'0 0.0
2018-May-28 07:30N 47°40' W 122°23'0 0.0
2018-May-28 07:00N 47°40' W 122°23'0 0.0
2018-May-28 06:30N 47°40' W 122°23'0 0.0
2018-May-28 06:00N 47°40' W 122°23'0 0.0
2018-May-28 05:30N 47°40' W 122°23'0 0.0
2018-May-28 05:00N 47°40' W 122°23'0 0.0
2018-May-28 04:30N 47°40' W 122°23'0 0.0
2018-May-28 04:00N 47°40' W 122°23'0 0.0
2018-May-28 03:30N 47°40' W 122°23'0 0.0
2018-May-28 03:00N 47°40' W 122°23'0 0.0
2018-May-28 02:30N 47°40' W 122°23'0 0.0
2018-May-28 02:00N 47°40' W 122°23'0 0.0
2018-May-28 01:30N 47°40' W 122°23'0 0.0
2018-May-28 01:00N 47°40' W 122°23'0 0.0
2018-May-28 00:30N 47°40' W 122°23'0 0.0
2018-May-28 00:00N 47°40' W 122°23'0 0.0
2018-May-27 23:30N 47°40' W 122°23'0 0.0
2018-May-27 23:00N 47°40' W 122°23'0 0.0
2018-May-27 22:30N 47°40' W 122°23'0 0.0
2018-May-27 22:00N 47°40' W 122°23'0 0.0
2018-May-27 21:30N 47°40' W 122°23'0 0.0
2018-May-27 21:00N 47°40' W 122°23'0 0.0
2018-May-27 20:30N 47°40' W 122°23'0 0.0
2018-May-27 20:00N 47°40' W 122°23'0 0.0
2018-May-27 19:30N 47°40' W 122°23'0 0.0
2018-May-27 19:00N 47°40' W 122°23'0 0.0
2018-May-27 18:30N 47°40' W 122°23'0 0.0
2018-May-27 18:00N 47°40' W 122°23'0 0.0
2018-May-27 17:30N 47°40' W 122°23'0 0.0
2018-May-27 17:00N 47°40' W 122°23'0 0.0
2018-May-27 16:30N 47°40' W 122°23'0 0.0
2018-May-27 16:00N 47°40' W 122°23'0 0.0
2018-May-27 15:30N 47°40' W 122°23'0 0.0
2018-May-27 15:00N 47°40' W 122°23'0 0.0
2018-May-27 14:30N 47°40' W 122°23'0 0.0
2018-May-27 14:00N 47°40' W 122°23'0 0.5
2018-May-27 13:30N 47°40' W 122°24'1 2.8
2018-May-27 13:00N 47°41' W 122°25'510.6
2018-May-27 12:30N 47°46' W 122°27'510.5
2018-May-27 12:00N 47°51' W 122°29'5 9.5
2018-May-27 11:30N 47°56' W 122°32'1810.4
2018-May-27 09:46N 48°10' W 122°48'311.5
2018-May-27 09:29N 48°11' W 122°53'611.3
2018-May-27 08:58N 48°12' W 123°01'3810.1
2018-May-27 05:12N 48°12' W 123°59'510.3
2018-May-27 04:42N 48°14' W 124°06'210.1
2018-May-27 04:29N 48°15' W 124°09'5 9.7
2018-May-27 04:00N 48°16' W 124°15'1 1.7
2018-May-27 03:31N 48°16' W 124°16'0 0.0
2018-May-27 03:00N 48°16' W 124°16'0 0.0
2018-May-27 02:30N 48°16' W 124°16'0 0.0
2018-May-27 01:57N 48°16' W 124°16'0 0.0
2018-May-27 01:31N 48°16' W 124°16'0 0.0
2018-May-27 01:01N 48°16' W 124°16'0 0.0
2018-May-27 00:30N 48°16' W 124°16'0 0.0
2018-May-26 23:59N 48°16' W 124°16'0 0.0
2018-May-26 23:30N 48°16' W 124°16'0 0.0
2018-May-26 23:00N 48°16' W 124°16'0 0.0
2018-May-26 22:29N 48°16' W 124°16'0 0.0
2018-May-26 21:59N 48°16' W 124°16'0 0.0
2018-May-26 21:29N 48°16' W 124°16'0 0.1
2018-May-26 21:00N 48°16' W 124°16'0 0.1
2018-May-26 20:30N 48°16' W 124°16'5 9.3
2018-May-26 20:00N 48°19' W 124°22'510.8
2018-May-26 19:30N 48°22' W 124°28'510.8
2018-May-26 19:01N 48°24' W 124°36'611.8
2018-May-26 18:30N 48°24' W 124°45'511.0
2018-May-26 18:00N 48°19' W 124°47'510.9
2018-May-26 17:30N 48°13' W 124°49'6910.4
2018-May-26 10:55N 47°05' W 124°49'510.5
2018-May-26 10:29N 47°00' W 124°49'510.5
2018-May-26 10:00N 46°55' W 124°49'510.2
2018-May-26 09:30N 46°50' W 124°48'510.2
2018-May-26 09:00N 46°45' W 124°48'510.4
2018-May-26 08:30N 46°40' W 124°47'510.4
2018-May-26 08:00N 46°35' W 124°47'510.3
2018-May-26 07:30N 46°30' W 124°47'510.2
2018-May-26 06:59N 46°24' W 124°46'510.5
2018-May-26 06:30N 46°19' W 124°46'1110.6
2018-May-26 05:30N 46°09' W 124°45'510.5
2018-May-26 05:00N 46°04' W 124°45'510.4
2018-May-26 04:30N 45°58' W 124°45'510.2
2018-May-26 04:00N 45°53' W 124°44'5 9.1
2018-May-26 03:30N 45°49' W 124°44'2 3.2
2018-May-26 03:00N 45°50' W 124°44'5 9.9
2018-May-26 02:30N 45°55' W 124°43'510.7
2018-May-26 02:00N 46°01' W 124°43'611.1
2018-May-26 01:30N 46°06' W 124°41'611.1
2018-May-26 01:00N 46°11' W 124°39'611.1
2018-May-26 00:26N 46°18' W 124°40'511.0
2018-May-26 00:00N 46°22' W 124°40'611.1
2018-May-25 23:30N 46°28' W 124°40'5 9.8
2018-May-25 23:00N 46°33' W 124°43'511.0
2018-May-25 22:30N 46°37' W 124°47'611.2
2018-May-25 22:00N 46°42' W 124°50'611.1
2018-May-25 21:30N 46°47' W 124°54'610.8
2018-May-25 20:56N 46°53' W 124°58'17 1.5
2018-May-25 09:51N 47°10' W 125°01'4 5.3
2018-May-25 09:09N 47°11' W 125°06'0 2.2
2018-May-25 08:56N 47°11' W 125°06'1 2.8
2018-May-25 08:30N 47°11' W 125°04'1 1.4
2018-May-25 07:55N 47°11' W 125°03'1 2.4
2018-May-25 07:18N 47°10' W 125°02'2 2.3
2018-May-25 06:30N 47°08' W 125°01'2 1.8
2018-May-25 05:21N 47°06' W 125°01'41 1.2
2018-May-23 20:05N 47°47' W 125°07'1 3.4
2018-May-23 19:42N 47°48' W 125°08'7 0.3
2018-May-22 21:24N 47°42' W 125°05'7 2.2
2018-May-22 18:24N 47°35' W 125°04'  
Track history (hours):
 
Tides and Currents Weather Stations Pressure Air Temp Water Temp Dewpoint Dewpoint Depression Visibility Wind Speed Wind Dir Waves Ship Positions

Sea Storm

Owner: Sea Storm Fisheries, Inc, Seattle, WA. More information available from US FCC via Universal Licensing System and Coast Guard Vessel Documentation Center.

Last reported at 2018-May-29 11:53 UTC. Time now 2018-Jun-18 09:27 UTC.
Position N 48°57' W 126°25'.
Warning: this ship's position is 19 days out of date.

MMSI: 367078118.

Date/timePositionNaut miles runAvg speedWind from/ knotsBaromVisibWave heightAir tempDewpointWater temp
2018-May-29 11:53N 48°57' W 126°25'4 9.4
2018-May-29 11:26N 48°55' W 126°20'4 9.1
2018-May-29 11:00N 48°53' W 126°14'5 9.1
2018-May-29 10:28N 48°51' W 126°08'6 9.0
2018-May-29 09:51N 48°49' W 126°00'3 9.3
2018-May-29 09:30N 48°47' W 125°56'5 9.1
2018-May-29 09:00N 48°45' W 125°50'4 8.9
2018-May-29 08:31N 48°43' W 125°44'5 9.0
2018-May-29 08:00N 48°41' W 125°38'5 9.1
2018-May-29 07:30N 48°39' W 125°32'7 9.4
2018-May-29 06:49N 48°36' W 125°23'12 9.7
2018-May-29 05:34N 48°31' W 125°06'1 9.8
2018-May-29 05:30N 48°31' W 125°05'510.6
2018-May-29 05:01N 48°31' W 124°58'510.5
2018-May-29 04:30N 48°31' W 124°50'510.7
2018-May-29 04:00N 48°30' W 124°42'610.9
2018-May-29 03:30N 48°28' W 124°34'510.9
2018-May-29 03:01N 48°26' W 124°26'510.9
2018-May-29 02:31N 48°24' W 124°19'510.4
2018-May-29 02:00N 48°22' W 124°11'510.1
2018-May-29 01:28N 48°20' W 124°04'18 9.6
2018-May-28 23:39N 48°16' W 123°38'42 8.6
2018-May-28 18:44N 48°03' W 122°38'711.1
2018-May-28 18:09N 47°57' W 122°32'211.2
2018-May-28 18:00N 47°56' W 122°30'611.2
2018-May-28 17:30N 47°51' W 122°28'611.1
2018-May-28 17:00N 47°46' W 122°26'510.1
2018-May-28 16:30N 47°41' W 122°25'1 2.7
2018-May-28 16:00N 47°40' W 122°24'0 0.3
2018-May-28 15:30N 47°40' W 122°23'0 0.0
2018-May-28 15:00N 47°40' W 122°23'0 0.0
2018-May-28 14:30N 47°40' W 122°23'0 0.0
2018-May-28 14:00N 47°40' W 122°23'0 0.0
2018-May-28 13:30N 47°40' W 122°23'0 0.0
2018-May-28 13:00N 47°40' W 122°23'0 0.0
2018-May-28 12:30N 47°40' W 122°23'0 0.0
2018-May-28 12:00N 47°40' W 122°23'0 0.0
2018-May-28 11:30N 47°40' W 122°23'0 0.0
2018-May-28 11:00N 47°40' W 122°23'0 0.0
2018-May-28 10:30N 47°40' W 122°23'0 0.0
2018-May-28 10:00N 47°40' W 122°23'0 0.0
2018-May-28 09:30N 47°40' W 122°23'0 0.0
2018-May-28 09:00N 47°40' W 122°23'0 0.0
2018-May-28 08:30N 47°40' W 122°23'0 0.0
2018-May-28 08:00N 47°40' W 122°23'0 0.0
2018-May-28 07:30N 47°40' W 122°23'0 0.0
2018-May-28 07:00N 47°40' W 122°23'0 0.0
2018-May-28 06:30N 47°40' W 122°23'0 0.0
2018-May-28 06:00N 47°40' W 122°23'0 0.0
2018-May-28 05:30N 47°40' W 122°23'0 0.0
2018-May-28 05:00N 47°40' W 122°23'0 0.0
2018-May-28 04:30N 47°40' W 122°23'0 0.0
2018-May-28 04:00N 47°40' W 122°23'0 0.0
2018-May-28 03:30N 47°40' W 122°23'0 0.0
2018-May-28 03:00N 47°40' W 122°23'0 0.0
2018-May-28 02:30N 47°40' W 122°23'0 0.0
2018-May-28 02:00N 47°40' W 122°23'0 0.0
2018-May-28 01:30N 47°40' W 122°23'0 0.0
2018-May-28 01:00N 47°40' W 122°23'0 0.0
2018-May-28 00:30N 47°40' W 122°23'0 0.0
2018-May-28 00:00N 47°40' W 122°23'0 0.0
2018-May-27 23:30N 47°40' W 122°23'0 0.0
2018-May-27 23:00N 47°40' W 122°23'0 0.0
2018-May-27 22:30N 47°40' W 122°23'0 0.0
2018-May-27 22:00N 47°40' W 122°23'0 0.0
2018-May-27 21:30N 47°40' W 122°23'0 0.0
2018-May-27 21:00N 47°40' W 122°23'0 0.0
2018-May-27 20:30N 47°40' W 122°23'0 0.0
2018-May-27 20:00N 47°40' W 122°23'0 0.0
2018-May-27 19:30N 47°40' W 122°23'0 0.0
2018-May-27 19:00N 47°40' W 122°23'0 0.0
2018-May-27 18:30N 47°40' W 122°23'0 0.0
2018-May-27 18:00N 47°40' W 122°23'0 0.0
2018-May-27 17:30N 47°40' W 122°23'0 0.0
2018-May-27 17:00N 47°40' W 122°23'0 0.0
2018-May-27 16:30N 47°40' W 122°23'0 0.0
2018-May-27 16:00N 47°40' W 122°23'0 0.0
2018-May-27 15:30N 47°40' W 122°23'0 0.0
2018-May-27 15:00N 47°40' W 122°23'0 0.0
2018-May-27 14:30N 47°40' W 122°23'0 0.0
2018-May-27 14:00N 47°40' W 122°23'0 0.5
2018-May-27 13:30N 47°40' W 122°24'1 2.8
2018-May-27 13:00N 47°41' W 122°25'510.6
2018-May-27 12:30N 47°46' W 122°27'510.5
2018-May-27 12:00N 47°51' W 122°29'5 9.5
2018-May-27 11:30N 47°56' W 122°32'1810.4
2018-May-27 09:46N 48°10' W 122°48'311.5
2018-May-27 09:29N 48°11' W 122°53'611.3
2018-May-27 08:58N 48°12' W 123°01'3810.1
2018-May-27 05:12N 48°12' W 123°59'510.3
2018-May-27 04:42N 48°14' W 124°06'210.1
2018-May-27 04:29N 48°15' W 124°09'5 9.7
2018-May-27 04:00N 48°16' W 124°15'1 1.7
2018-May-27 03:31N 48°16' W 124°16'0 0.0
2018-May-27 03:00N 48°16' W 124°16'0 0.0
2018-May-27 02:30N 48°16' W 124°16'0 0.0
2018-May-27 01:57N 48°16' W 124°16'0 0.0
2018-May-27 01:31N 48°16' W 124°16'0 0.0
2018-May-27 01:01N 48°16' W 124°16'0 0.0
2018-May-27 00:30N 48°16' W 124°16'0 0.0
2018-May-26 23:59N 48°16' W 124°16'0 0.0
2018-May-26 23:30N 48°16' W 124°16'0 0.0
2018-May-26 23:00N 48°16' W 124°16'0 0.0
2018-May-26 22:29N 48°16' W 124°16'0 0.0
2018-May-26 21:59N 48°16' W 124°16'0 0.0
2018-May-26 21:29N 48°16' W 124°16'0 0.1
2018-May-26 21:00N 48°16' W 124°16'0 0.1
2018-May-26 20:30N 48°16' W 124°16'5 9.3
2018-May-26 20:00N 48°19' W 124°22'510.8
2018-May-26 19:30N 48°22' W 124°28'510.8
2018-May-26 19:01N 48°24' W 124°36'611.8
2018-May-26 18:30N 48°24' W 124°45'511.0
2018-May-26 18:00N 48°19' W 124°47'510.9
2018-May-26 17:30N 48°13' W 124°49'6910.4
2018-May-26 10:55N 47°05' W 124°49'510.5
2018-May-26 10:29N 47°00' W 124°49'510.5
2018-May-26 10:00N 46°55' W 124°49'510.2
2018-May-26 09:30N 46°50' W 124°48'510.2
2018-May-26 09:00N 46°45' W 124°48'510.4
2018-May-26 08:30N 46°40' W 124°47'510.4
2018-May-26 08:00N 46°35' W 124°47'510.3
2018-May-26 07:30N 46°30' W 124°47'510.2
2018-May-26 06:59N 46°24' W 124°46'510.5
2018-May-26 06:30N 46°19' W 124°46'1110.6
2018-May-26 05:30N 46°09' W 124°45'510.5
2018-May-26 05:00N 46°04' W 124°45'510.4
2018-May-26 04:30N 45°58' W 124°45'510.2
2018-May-26 04:00N 45°53' W 124°44'5 9.1
2018-May-26 03:30N 45°49' W 124°44'2 3.2
2018-May-26 03:00N 45°50' W 124°44'5 9.9
2018-May-26 02:30N 45°55' W 124°43'510.7
2018-May-26 02:00N 46°01' W 124°43'611.1
2018-May-26 01:30N 46°06' W 124°41'611.1
2018-May-26 01:00N 46°11' W 124°39'611.1
2018-May-26 00:26N 46°18' W 124°40'511.0
2018-May-26 00:00N 46°22' W 124°40'611.1
2018-May-25 23:30N 46°28' W 124°40'5 9.8
2018-May-25 23:00N 46°33' W 124°43'511.0
2018-May-25 22:30N 46°37' W 124°47'611.2
2018-May-25 22:00N 46°42' W 124°50'611.1
2018-May-25 21:30N 46°47' W 124°54'610.8
2018-May-25 20:56N 46°53' W 124°58'17 1.5
2018-May-25 09:51N 47°10' W 125°01'4 5.3
2018-May-25 09:09N 47°11' W 125°06'0 2.2
2018-May-25 08:56N 47°11' W 125°06'1 2.8
2018-May-25 08:30N 47°11' W 125°04'1 1.4
2018-May-25 07:55N 47°11' W 125°03'1 2.4
2018-May-25 07:18N 47°10' W 125°02'2 2.3
2018-May-25 06:30N 47°08' W 125°01'2 1.8
2018-May-25 05:21N 47°06' W 125°01'41 1.2
2018-May-23 20:05N 47°47' W 125°07'1 3.4
2018-May-23 19:42N 47°48' W 125°08'7 0.3
2018-May-22 21:24N 47°42' W 125°05'7 2.2
2018-May-22 18:24N 47°35' W 125°04'  

Dump ship's entire track history